createdAt,value
2019-04-05T00:00:22.770Z,6.73
2019-04-05T00:02:52.380Z,7.83
2019-04-05T00:05:21.714Z,8.30
2019-04-05T00:07:51.305Z,7.80
2019-04-05T00:10:20.635Z,8.70
2019-04-05T00:12:50.116Z,7.93
2019-04-05T00:15:20.543Z,6.90
2019-04-05T00:17:49.855Z,6.93
2019-04-05T00:20:19.184Z,6.63
2019-04-05T00:22:48.599Z,5.63
2019-04-05T00:25:18.099Z,5.57
2019-04-05T00:27:47.526Z,4.03
2019-04-05T00:30:17.019Z,3.10
2019-04-05T00:32:46.413Z,3.00
2019-04-05T00:35:15.823Z,2.97
2019-04-05T00:37:45.288Z,2.63
2019-04-05T00:40:15.021Z,3.10
2019-04-05T00:42:44.414Z,2.47
2019-04-05T00:45:13.925Z,3.63
2019-04-05T00:47:43.305Z,3.30
2019-04-05T00:50:13.013Z,2.57
2019-04-05T00:52:42.408Z,3.00
2019-04-05T00:55:12.124Z,4.90
2019-04-05T00:57:41.523Z,5.30
2019-04-05T01:00:11.063Z,5.80
2019-04-05T01:02:40.419Z,4.00
2019-04-05T01:05:10.396Z,5.97
2019-04-05T01:07:40.135Z,5.97
2019-04-05T01:10:10.083Z,5.23
2019-04-05T01:12:40.770Z,5.13
2019-04-05T01:15:12.027Z,4.40
2019-04-05T01:17:41.541Z,3.77
2019-04-05T01:20:11.386Z,4.33
2019-04-05T01:22:42.732Z,3.90
2019-04-05T01:25:13.021Z,3.20
2019-04-05T01:27:43.012Z,3.17
2019-04-05T01:30:14.437Z,3.50
2019-04-05T01:32:43.879Z,2.80
2019-04-05T01:35:13.184Z,2.40
2019-04-05T01:37:42.874Z,2.13
2019-04-05T01:40:12.538Z,1.90
2019-04-05T01:42:42.481Z,2.00
2019-04-05T01:45:12.691Z,2.17
2019-04-05T01:47:42.037Z,1.83
2019-04-05T01:50:11.938Z,1.60
2019-04-05T01:52:42.245Z,1.80
2019-04-05T01:55:11.825Z,1.83
2019-04-05T01:57:41.150Z,1.70
2019-04-05T02:00:11.792Z,1.90
2019-04-05T02:02:41.838Z,2.23
2019-04-05T02:05:11.364Z,2.03
2019-04-05T02:07:41.571Z,2.07
2019-04-05T02:10:12.697Z,1.80
2019-04-05T02:12:42.151Z,1.90
2019-04-05T02:15:22.192Z,1.83
2019-04-05T02:17:51.568Z,2.00
2019-04-05T02:20:20.959Z,2.13
2019-04-05T02:22:50.439Z,2.23
2019-04-05T02:25:19.805Z,2.20
2019-04-05T02:27:49.203Z,2.10
2019-04-05T02:30:19.090Z,1.70
2019-04-05T02:32:48.720Z,1.90
2019-04-05T02:35:18.084Z,2.00
2019-04-05T02:37:47.795Z,1.87
2019-04-05T02:40:18.184Z,1.80
2019-04-05T02:42:50.397Z,1.80
2019-04-05T02:45:20.622Z,1.63
2019-04-05T02:47:53.074Z,1.73
2019-04-05T02:50:25.419Z,1.60
2019-04-05T02:52:57.977Z,1.53
2019-04-05T02:55:29.277Z,1.50
2019-04-05T02:58:01.309Z,1.80
2019-04-05T03:00:32.619Z,1.43
2019-04-05T03:03:03.547Z,1.50
2019-04-05T03:05:33.214Z,1.70
2019-04-05T03:08:02.974Z,1.47
2019-04-05T03:10:55.315Z,1.63
2019-04-05T03:13:27.382Z,1.87
2019-04-05T03:15:59.840Z,1.80
2019-04-05T03:18:31.147Z,1.90
2019-04-05T03:21:03.921Z,2.27
2019-04-05T03:23:36.349Z,2.60
2019-04-05T03:26:07.770Z,3.83
2019-04-05T03:28:40.489Z,3.93
2019-04-05T03:31:10.424Z,3.93
2019-04-05T03:33:39.953Z,4.10
2019-04-05T03:36:09.641Z,4.20
2019-04-05T03:38:39.577Z,3.10
2019-04-05T03:41:10.457Z,3.23
2019-04-05T03:43:40.995Z,3.77
2019-04-05T03:46:11.946Z,5.40
2019-04-05T03:48:41.675Z,4.27
2019-04-05T03:51:12.999Z,4.13
2019-04-05T03:53:43.676Z,5.27
2019-04-05T03:56:37.741Z,3.93
2019-04-05T03:59:06.726Z,5.33
2019-04-05T04:01:37.730Z,3.93
2019-04-05T04:04:08.277Z,3.20
2019-04-05T04:06:37.700Z,2.97
2019-04-05T04:09:07.740Z,4.03
2019-04-05T04:11:38.102Z,5.57
2019-04-05T04:14:07.801Z,4.43
2019-04-05T04:16:37.610Z,4.30
2019-04-05T04:19:07.132Z,3.03
2019-04-05T04:21:53.657Z,4.30
2019-04-05T04:24:24.290Z,3.47
2019-04-05T04:26:53.953Z,4.20
2019-04-05T04:29:23.689Z,3.77
2019-04-05T04:31:53.400Z,3.97
2019-04-05T04:34:23.418Z,4.27
2019-04-05T04:36:53.047Z,4.33
2019-04-05T04:39:22.801Z,5.27
2019-04-05T04:41:52.864Z,7.57
2019-04-05T04:44:22.865Z,5.83
2019-04-05T04:46:52.332Z,5.97
2019-04-05T04:49:22.181Z,5.47
2019-04-05T04:51:51.687Z,5.83
2019-04-05T04:54:22.464Z,4.93
2019-04-05T04:56:52.393Z,4.20
2019-04-05T04:59:21.755Z,3.67
2019-04-05T05:01:52.436Z,4.70
2019-04-05T05:04:21.881Z,3.70
2019-04-05T05:06:51.703Z,3.47
2019-04-05T05:09:21.716Z,4.57
2019-04-05T05:11:52.149Z,4.40
2019-04-05T05:14:22.836Z,4.50
2019-04-05T05:16:52.215Z,4.73
2019-04-05T05:19:21.740Z,5.07
2019-04-05T05:21:51.458Z,4.67
2019-04-05T05:24:21.157Z,4.70
2019-04-05T05:26:50.908Z,5.60
2019-04-05T05:29:20.704Z,4.50
2019-04-05T05:31:51.163Z,5.60
2019-04-05T05:34:23.326Z,7.40
2019-04-05T05:36:53.474Z,6.87
2019-04-05T05:39:23.445Z,7.27
2019-04-05T05:41:53.688Z,5.13
2019-04-05T05:44:24.314Z,5.33
2019-04-05T05:46:53.793Z,4.60
2019-04-05T05:49:23.251Z,5.30
2019-04-05T05:51:53.406Z,4.20
2019-04-05T05:54:22.937Z,4.27
2019-04-05T05:56:52.396Z,4.70
2019-04-05T05:59:21.727Z,3.93
2019-04-05T06:01:51.129Z,3.93
2019-04-05T06:04:20.522Z,3.70
2019-04-05T06:06:49.908Z,3.37
2019-04-05T06:09:19.282Z,3.23
2019-04-05T06:11:48.656Z,3.27
2019-04-05T06:14:19.578Z,2.80
2019-04-05T06:16:48.961Z,3.27
2019-04-05T06:19:18.373Z,3.03
2019-04-05T06:21:47.818Z,2.83
2019-04-05T06:24:18.345Z,2.90
2019-04-05T06:26:49.324Z,3.00
2019-04-05T06:29:20.463Z,2.60
2019-04-05T06:31:51.104Z,3.10
2019-04-05T06:34:20.547Z,3.00
2019-04-05T06:36:51.312Z,2.90
2019-04-05T06:39:23.598Z,2.90
2019-04-05T06:41:52.989Z,3.63
2019-04-05T06:44:23.615Z,4.13
2019-04-05T06:46:54.446Z,4.20
2019-04-05T06:49:23.857Z,4.47
2019-04-05T06:51:53.332Z,5.10
2019-04-05T06:54:22.793Z,4.83
2019-04-05T06:56:52.215Z,5.17
2019-04-05T06:59:21.574Z,4.03
2019-04-05T07:01:53.390Z,4.97
2019-04-05T07:04:22.780Z,5.00
2019-04-05T07:07:11.262Z,4.73
2019-04-05T07:09:40.735Z,4.07
2019-04-05T07:12:10.198Z,4.83
2019-04-05T07:14:40.104Z,4.37
2019-04-05T07:17:10.664Z,4.03
2019-04-05T07:19:40.063Z,3.87
2019-04-05T07:22:10.624Z,3.93
2019-04-05T07:24:40.017Z,4.10
2019-04-05T07:27:09.432Z,5.30
2019-04-05T07:29:38.900Z,3.40
2019-04-05T07:32:09.987Z,3.87
2019-04-05T07:34:39.420Z,3.97
2019-04-05T07:37:09.066Z,4.57
2019-04-05T07:39:38.575Z,3.60
2019-04-05T07:42:08.169Z,3.67
2019-04-05T07:44:37.640Z,3.40
2019-04-05T07:47:08.249Z,3.10
2019-04-05T07:49:37.703Z,2.83
2019-04-05T07:52:07.269Z,2.80
2019-04-05T07:54:36.673Z,2.57
2019-04-05T07:57:06.123Z,2.53
2019-04-05T07:59:35.548Z,2.60
2019-04-05T08:02:04.922Z,3.13
2019-04-05T08:04:34.385Z,2.10
2019-04-05T08:07:05.448Z,2.53
2019-04-05T08:09:37.480Z,2.27
2019-04-05T08:12:07.498Z,2.13
2019-04-05T08:14:39.777Z,2.50
2019-04-05T08:17:09.569Z,2.40
2019-04-05T08:19:38.976Z,5.30
2019-04-05T08:22:08.543Z,4.30
2019-04-05T08:24:38.038Z,3.10
2019-04-05T08:27:07.435Z,2.83
2019-04-05T08:29:37.045Z,2.97
2019-04-05T08:32:14.293Z,2.80
2019-04-05T08:34:37.596Z,3.00
2019-04-05T08:37:08.466Z,3.20
2019-04-05T08:39:37.930Z,5.53
2019-04-05T08:42:07.359Z,4.50
2019-04-05T08:44:36.777Z,7.23
2019-04-05T08:47:06.500Z,4.93
2019-04-05T08:49:35.875Z,5.40
2019-04-05T08:52:06.601Z,3.83
2019-04-05T08:54:36.870Z,4.90
2019-04-05T08:57:06.844Z,4.27
2019-04-05T08:59:37.364Z,4.40
2019-04-05T09:02:08.429Z,3.60
2019-04-05T09:04:37.879Z,4.50
2019-04-05T09:07:07.265Z,4.00
2019-04-05T09:09:36.983Z,4.57
2019-04-05T09:12:06.390Z,3.73
2019-04-05T09:14:38.650Z,3.97
2019-04-05T09:17:08.096Z,5.60
2019-04-05T09:19:37.858Z,5.30
2019-04-05T09:22:07.459Z,3.70
2019-04-05T09:24:36.793Z,4.50
2019-04-05T09:27:06.240Z,2.90
2019-04-05T09:29:35.710Z,3.50
2019-04-05T09:32:05.142Z,3.43
2019-04-05T09:34:34.577Z,3.57
2019-04-05T09:37:04.335Z,3.37
2019-04-05T09:39:33.811Z,3.67
2019-04-05T09:42:03.265Z,3.93
2019-04-05T09:44:51.714Z,3.37
2019-04-05T09:47:21.239Z,4.23
2019-04-05T09:49:51.884Z,3.87
2019-04-05T09:52:21.256Z,4.07
2019-04-05T09:54:50.613Z,3.83
2019-04-05T09:57:20.145Z,3.27
2019-04-05T09:59:49.545Z,3.67
2019-04-05T10:02:18.943Z,3.80
2019-04-05T10:04:49.650Z,3.57
2019-04-05T10:07:19.160Z,3.70
2019-04-05T10:09:50.391Z,3.47
2019-04-05T10:12:19.698Z,3.73
2019-04-05T10:14:49.391Z,3.20
2019-04-05T10:17:37.888Z,2.77
2019-04-05T10:20:08.451Z,2.87
2019-04-05T10:22:37.808Z,3.37
2019-04-05T10:25:07.406Z,2.87
2019-04-05T10:27:36.805Z,3.50
2019-04-05T10:30:08.796Z,2.97
2019-04-05T10:32:41.321Z,2.60
2019-04-05T10:35:10.638Z,3.40
2019-04-05T10:37:39.983Z,2.87
2019-04-05T10:40:10.742Z,2.90
2019-04-05T10:42:40.101Z,2.73
2019-04-05T10:45:10.622Z,3.10
2019-04-05T10:47:40.155Z,2.50
2019-04-05T10:50:11.249Z,2.33
2019-04-05T10:52:41.159Z,2.13
2019-04-05T10:55:11.291Z,2.50
2019-04-05T10:57:40.676Z,2.87
2019-04-05T11:00:13.933Z,2.53
2019-04-05T11:02:43.337Z,2.97
2019-04-05T11:05:13.178Z,2.40
2019-04-05T11:07:42.641Z,2.83
2019-04-05T11:10:13.913Z,2.60
2019-04-05T11:12:43.349Z,2.70
2019-04-05T11:15:15.119Z,2.90
2019-04-05T11:17:44.192Z,2.67
2019-04-05T11:20:21.248Z,2.60
2019-04-05T11:22:46.791Z,2.07
2019-04-05T11:25:20.425Z,2.63
2019-04-05T11:27:48.523Z,1.97
2019-04-05T11:30:40.778Z,2.13
2019-04-05T11:33:10.214Z,2.20
2019-04-05T11:35:39.627Z,2.63
2019-04-05T11:38:09.117Z,2.03
2019-04-05T11:40:38.806Z,2.40
2019-04-05T11:43:08.234Z,1.93
2019-04-05T11:45:38.106Z,1.77
2019-04-05T11:48:07.489Z,1.70
2019-04-05T11:50:36.816Z,1.90
2019-04-05T11:53:06.234Z,1.60
2019-04-05T11:55:35.661Z,1.90
2019-04-05T11:58:05.063Z,1.90
2019-04-05T12:01:11.936Z,1.50
2019-04-05T12:03:41.758Z,3.20
2019-04-05T12:06:11.366Z,3.50
2019-04-05T12:08:41.942Z,2.10
2019-04-05T12:11:12.523Z,2.10
2019-04-05T12:13:42.078Z,2.10
2019-04-05T12:16:11.570Z,1.90
2019-04-05T12:18:41.093Z,2.20
2019-04-05T12:21:10.563Z,2.70
2019-04-05T12:23:40.174Z,1.90
2019-04-05T12:26:09.561Z,2.30
2019-04-05T12:28:38.952Z,2.07
2019-04-05T12:31:08.356Z,2.37
2019-04-05T12:33:39.303Z,2.20
2019-04-05T12:36:10.865Z,2.27
2019-04-05T12:38:42.179Z,2.20
2019-04-05T12:41:11.757Z,2.30
2019-04-05T12:43:43.998Z,3.00
2019-04-05T12:46:15.042Z,1.97
2019-04-05T12:48:45.524Z,1.80
2019-04-05T12:51:15.694Z,2.10
2019-04-05T12:53:45.688Z,2.17
2019-04-05T12:56:15.162Z,1.80
2019-04-05T12:58:44.495Z,1.70
2019-04-05T13:01:13.894Z,1.67
2019-04-05T13:03:43.340Z,1.70
2019-04-05T13:06:12.865Z,2.73
2019-04-05T13:08:42.290Z,2.00
2019-04-05T13:11:12.152Z,1.77
2019-04-05T13:13:41.572Z,3.13
2019-04-05T13:16:11.032Z,2.27
2019-04-05T13:18:40.570Z,1.90
2019-04-05T13:21:15.016Z,2.17
2019-04-05T13:23:41.468Z,1.80
2019-04-05T13:26:12.359Z,2.23
2019-04-05T13:28:41.956Z,2.40
2019-04-05T13:31:11.397Z,3.90
2019-04-05T13:33:41.274Z,2.10
2019-04-05T13:36:10.704Z,2.00
2019-04-05T13:38:40.130Z,3.67
2019-04-05T13:41:09.514Z,2.10
2019-04-05T13:43:38.963Z,2.00
2019-04-05T13:46:21.045Z,1.60
2019-04-05T13:48:40.156Z,2.23
2019-04-05T13:51:12.165Z,2.10
2019-04-05T13:53:41.305Z,3.20
2019-04-05T13:56:11.121Z,3.50
2019-04-05T13:58:40.949Z,3.67
2019-04-05T14:01:10.305Z,4.30
2019-04-05T14:03:41.046Z,5.53
2019-04-05T14:06:10.823Z,6.33
2019-04-05T14:08:41.874Z,6.70
2019-04-05T14:11:11.520Z,6.07
2019-04-05T14:13:42.925Z,5.90
2019-04-05T14:16:13.014Z,5.40
2019-04-05T14:18:45.716Z,9.53
2019-04-05T14:21:13.666Z,6.00
2019-04-05T14:23:43.493Z,6.67
2019-04-05T14:26:13.198Z,10.00
2019-04-05T14:28:42.536Z,10.37
2019-04-05T14:31:11.942Z,10.77
2019-04-05T14:33:41.443Z,11.50
2019-04-05T14:36:10.792Z,11.27
2019-04-05T14:38:40.215Z,11.93
2019-04-05T14:41:09.635Z,11.47
2019-04-05T14:43:38.991Z,12.67
2019-04-05T14:46:08.381Z,12.80
2019-04-05T14:48:38.057Z,13.03
2019-04-05T14:51:07.453Z,13.30
2019-04-05T14:53:36.855Z,13.63
2019-04-05T14:56:06.363Z,12.57
2019-04-05T14:58:35.733Z,13.60
2019-04-05T15:01:05.087Z,13.87
2019-04-05T15:03:35.019Z,13.30
2019-04-05T15:06:04.521Z,12.23
2019-04-05T15:08:33.979Z,13.93
2019-04-05T15:11:03.632Z,15.73
2019-04-05T15:13:33.067Z,15.10
2019-04-05T15:16:02.393Z,12.53
2019-04-05T15:18:31.820Z,15.70
2019-04-05T15:21:01.296Z,15.70
2019-04-05T15:23:30.692Z,16.90
2019-04-05T15:26:00.809Z,16.37
2019-04-05T15:28:30.251Z,15.83
2019-04-05T15:30:59.702Z,15.93
2019-04-05T15:33:29.075Z,15.10
2019-04-05T15:36:02.241Z,15.63
2019-04-05T15:38:31.853Z,12.17
2019-04-05T15:41:00.624Z,15.47
2019-04-05T15:43:30.031Z,16.30
2019-04-05T15:45:59.483Z,16.47
2019-04-05T15:48:28.938Z,16.77
2019-04-05T15:50:59.265Z,16.60
2019-04-05T15:53:31.892Z,17.37
2019-04-05T15:56:03.891Z,15.80
2019-04-05T15:58:31.527Z,16.53
2019-04-05T16:01:04.181Z,17.77
2019-04-05T16:03:33.327Z,17.47
2019-04-05T16:06:02.707Z,17.37
2019-04-05T16:08:32.103Z,18.13
2019-04-05T16:11:01.578Z,18.73
2019-04-05T16:13:31.013Z,18.40
2019-04-05T16:16:00.623Z,19.20
2019-04-05T16:18:30.016Z,19.63
2019-04-05T16:20:59.497Z,19.87
2019-04-05T16:23:28.915Z,18.37
2019-04-05T16:25:58.335Z,20.13
2019-04-05T16:28:28.202Z,19.37
2019-04-05T16:30:57.630Z,20.20
2019-04-05T16:33:27.058Z,19.83
2019-04-05T16:35:56.422Z,20.30
2019-04-05T16:38:25.869Z,18.03
2019-04-05T16:40:55.473Z,17.83
2019-04-05T16:43:24.828Z,18.07
2019-04-05T16:45:54.189Z,17.73
2019-04-05T16:48:23.623Z,17.13
2019-04-05T16:50:53.054Z,17.70
2019-04-05T16:53:22.435Z,18.10
2019-04-05T16:55:51.892Z,17.97
2019-04-05T16:58:21.260Z,18.97
2019-04-05T17:00:50.742Z,18.50
2019-04-05T17:03:20.181Z,18.90
2019-04-05T17:05:49.524Z,19.90
2019-04-05T17:08:18.882Z,18.47
2019-04-05T17:10:48.334Z,20.07
2019-04-05T17:13:17.723Z,18.80
2019-04-05T17:15:47.198Z,19.13
2019-04-05T17:18:16.632Z,19.67
2019-04-05T17:20:46.047Z,19.37
2019-04-05T17:23:15.444Z,20.10
2019-04-05T17:25:44.925Z,19.73
2019-04-05T17:28:14.351Z,20.73
2019-04-05T17:30:44.486Z,20.53
2019-04-05T17:33:13.909Z,20.77
2019-04-05T17:35:43.264Z,20.30
2019-04-05T17:38:12.667Z,20.60
2019-04-05T17:40:42.143Z,20.70
2019-04-05T17:43:11.444Z,20.33
2019-04-05T17:45:40.822Z,20.40
2019-04-05T17:48:10.257Z,20.77
2019-04-05T17:50:39.719Z,19.70
2019-04-05T17:53:13.359Z,19.57
2019-04-05T17:55:40.460Z,21.07
2019-04-05T17:58:10.484Z,20.50
2019-04-05T18:00:39.843Z,21.63
2019-04-05T18:03:09.527Z,21.70
2019-04-05T18:05:40.509Z,21.87
2019-04-05T18:08:09.909Z,20.33
2019-04-05T18:10:39.289Z,19.13
2019-04-05T18:13:10.102Z,19.23
2019-04-05T18:15:51.853Z,21.80
2019-04-05T18:18:11.204Z,20.63
2019-04-05T18:20:40.634Z,21.30
2019-04-05T18:23:10.141Z,20.73
2019-04-05T18:25:39.622Z,19.30
2019-04-05T18:28:09.069Z,20.43
2019-04-05T18:30:38.408Z,21.37
2019-04-05T18:33:08.324Z,21.77
2019-04-05T18:35:37.735Z,20.40
2019-04-05T18:38:07.112Z,19.63
2019-04-05T18:40:40.339Z,18.57
2019-04-05T18:43:07.855Z,19.03
2019-04-05T18:45:37.415Z,18.87
2019-04-05T18:48:06.945Z,17.40
2019-04-05T18:50:36.268Z,18.67
2019-04-05T18:53:05.666Z,18.90
2019-04-05T18:55:35.098Z,18.87
2019-04-05T18:58:04.551Z,20.37
2019-04-05T19:00:33.913Z,19.30
2019-04-05T19:03:03.721Z,18.13
2019-04-05T19:05:33.321Z,18.77
2019-04-05T19:08:02.712Z,18.20
2019-04-05T19:10:37.148Z,18.37
2019-04-05T19:13:03.223Z,18.00
2019-04-05T19:15:32.658Z,18.33
2019-04-05T19:18:02.023Z,18.07
2019-04-05T19:20:31.388Z,17.57
2019-04-05T19:23:00.920Z,17.37
2019-04-05T19:25:30.386Z,17.80
2019-04-05T19:27:59.812Z,18.60
2019-04-05T19:50:38.348Z,11.40
2019-04-05T19:53:07.820Z,9.77
2019-04-05T19:55:37.536Z,8.30
2019-04-05T19:58:07.009Z,8.30
2019-04-05T20:00:36.435Z,8.10
2019-04-05T20:03:06.316Z,8.70
2019-04-05T20:05:35.834Z,5.80
2019-04-05T20:08:05.336Z,4.70
2019-04-05T20:10:34.768Z,4.30
2019-04-05T20:13:04.166Z,3.57
2019-04-05T20:15:33.678Z,3.40
2019-04-05T20:18:03.447Z,2.93
2019-04-05T20:20:32.943Z,3.10
2019-04-05T20:23:02.564Z,2.70
2019-04-05T20:25:31.999Z,2.60
2019-04-05T20:28:01.386Z,3.67
2019-04-05T20:30:30.764Z,3.03
2019-04-05T20:33:00.191Z,2.67
2019-04-05T20:35:29.521Z,2.40
2019-04-05T20:37:59.114Z,2.67
2019-04-05T20:40:28.861Z,2.63
2019-04-05T20:42:59.906Z,3.00
2019-04-05T20:45:29.512Z,2.50
2019-04-05T20:47:59.029Z,2.80
2019-04-05T20:50:28.490Z,3.00
2019-04-05T20:52:57.920Z,2.53
2019-04-05T20:55:27.336Z,2.60
2019-04-05T20:57:56.657Z,2.63
2019-04-05T21:00:26.028Z,2.77
2019-04-05T21:02:55.583Z,3.03
2019-04-05T21:05:25.812Z,2.60
2019-04-05T21:07:55.317Z,3.00
2019-04-05T21:10:24.725Z,2.67
2019-04-05T21:12:54.051Z,2.70
2019-04-05T21:15:23.465Z,3.00
2019-04-05T21:17:52.883Z,3.20
2019-04-05T21:20:22.336Z,3.07
2019-04-05T21:22:51.804Z,3.13
2019-04-05T21:25:21.310Z,3.20
2019-04-05T21:27:50.721Z,2.93
2019-04-05T21:30:20.150Z,3.53
2019-04-05T21:32:49.556Z,3.47
2019-04-05T21:35:18.935Z,3.47
2019-04-05T21:37:48.387Z,3.20
2019-04-05T21:40:18.139Z,3.87
2019-04-05T21:42:47.623Z,2.60
2019-04-05T21:45:17.021Z,3.10
2019-04-05T21:47:46.414Z,3.30
2019-04-05T21:50:15.826Z,3.50
2019-04-05T21:52:45.236Z,3.23
2019-04-05T21:55:14.732Z,3.10
2019-04-05T21:57:44.062Z,3.07
2019-04-05T22:00:21.082Z,3.10
2019-04-05T22:02:50.517Z,3.80
2019-04-05T22:05:19.899Z,2.80
2019-04-05T22:07:51.450Z,2.97
2019-04-05T22:10:20.441Z,3.40
2019-04-05T22:12:49.765Z,3.20
2019-04-05T22:15:19.191Z,3.13
2019-04-05T22:17:48.689Z,3.50
2019-04-05T22:20:18.060Z,3.30
2019-04-05T22:22:47.498Z,3.43
2019-04-05T22:25:17.005Z,3.27
2019-04-05T22:27:46.346Z,3.50
2019-04-05T22:30:15.799Z,2.73
2019-04-05T22:32:45.218Z,3.43
2019-04-05T22:35:14.643Z,3.17
2019-04-05T22:37:44.169Z,3.30
2019-04-05T22:40:13.633Z,3.57
2019-04-05T22:42:43.397Z,3.40
2019-04-05T22:45:12.954Z,3.30
2019-04-05T22:47:42.336Z,3.17
2019-04-05T22:50:11.773Z,3.17
2019-04-05T22:52:41.219Z,3.30
2019-04-05T22:55:11.990Z,2.87
2019-04-05T22:57:41.474Z,3.30
2019-04-05T23:00:11.321Z,3.10
2019-04-05T23:02:40.770Z,3.47
2019-04-05T23:05:10.470Z,3.33
2019-04-05T23:07:39.944Z,3.30
2019-04-05T23:10:09.513Z,3.50
2019-04-05T23:12:38.910Z,3.20
2019-04-05T23:15:09.392Z,3.37
2019-04-05T23:17:38.817Z,2.90
2019-04-05T23:20:08.478Z,3.10
2019-04-05T23:22:38.165Z,3.50
2019-04-05T23:25:07.668Z,3.40
2019-04-05T23:27:37.152Z,3.23
2019-04-05T23:30:08.651Z,3.10
2019-04-05T23:32:38.003Z,2.77
2019-04-05T23:35:07.796Z,2.83
2019-04-05T23:37:37.299Z,3.17
2019-04-05T23:40:06.952Z,3.27
2019-04-05T23:42:36.392Z,3.47
2019-04-05T23:45:06.844Z,3.30
2019-04-05T23:47:36.247Z,3.17
2019-04-05T23:50:06.191Z,3.30
2019-04-05T23:52:35.690Z,3.10
2019-04-05T23:55:05.399Z,3.03
2019-04-05T23:57:34.806Z,3.37
